Search for airport 
image banner adimage banner adimage banner ad
image banner ad

KMIT - Shafter-Minter Field

Located in Shafter, United States

ICAO - MIT, IATA -

Data provided by Airmate  

General information

Coordinates: N35°30'27" W119°11'32"
Elevation is 425 feet MSL.
Magnetic variation is 13° East
View others Airports in California

Operational data

Special qualification required
Current time UTC:
Current local time:
Weather at : KBFL - Meadows Field ( 15 km )
METAR: KBFL 210954Z AUTO 05005KT 10SM CLR 27/M02 A2981 RMK AO2 SLP087 T02721017
TAF: KBFL 210520Z 2106/2206 34012KT P6SM SKC FM210900 35005KT P6SM SKC FM211900 32013G23KT P6SM SKC
View NOTAMs / SUP AIP / TFR affecting this airport [VIEW]
Communications frequencies: [VIEW]

Runways:

RWY identifierQFULength (ft)Width (ft)SurfaceLDA (ft)
12133°4501100ASPH
30313°4501100ASPH
17180°2970100CONC
352970100CONC
0890°367260ASPH
26270°367260ASPH

Airport contact information

Address: Shafter United States

Satellite view of KMIT